sensor_id;sensor_type;location;lat;lon;timestamp;temperature;humidity
6407;DHT22;3236;51.022;6.818;2023-05-10T00:01:26;14.00;99.90
6407;DHT22;3236;51.022;6.818;2023-05-10T00:03:53;13.40;99.90
6407;DHT22;3236;51.022;6.818;2023-05-10T00:06:20;13.50;99.90
6407;DHT22;3236;51.022;6.818;2023-05-10T00:08:47;13.60;99.90
6407;DHT22;3236;51.022;6.818;2023-05-10T00:11:14;13.80;99.90
6407;DHT22;3236;51.022;6.818;2023-05-10T00:13:41;13.70;99.90
6407;DHT22;3236;51.022;6.818;2023-05-10T00:16:08;13.60;99.90
6407;DHT22;3236;51.022;6.818;2023-05-10T00:18:37;13.60;99.90
6407;DHT22;3236;51.022;6.818;2023-05-10T00:21:04;13.60;99.90
6407;DHT22;3236;51.022;6.818;2023-05-10T00:23:33;13.60;99.90
6407;DHT22;3236;51.022;6.818;2023-05-10T00:26:00;13.50;99.90
6407;DHT22;3236;51.022;6.818;2023-05-10T00:28:30;13.70;99.90
6407;DHT22;3236;51.022;6.818;2023-05-10T00:30:57;13.70;99.90
6407;DHT22;3236;51.022;6.818;2023-05-10T00:33:28;13.70;99.90
6407;DHT22;3236;51.022;6.818;2023-05-10T00:35:56;13.70;99.90
6407;DHT22;3236;51.022;6.818;2023-05-10T00:38:23;14.00;99.90
6407;DHT22;3236;51.022;6.818;2023-05-10T00:40:50;14.00;99.90
6407;DHT22;3236;51.022;6.818;2023-05-10T00:43:17;13.70;99.90
6407;DHT22;3236;51.022;6.818;2023-05-10T00:45:44;13.70;99.90
6407;DHT22;3236;51.022;6.818;2023-05-10T00:48:12;13.70;99.90
6407;DHT22;3236;51.022;6.818;2023-05-10T00:50:39;13.90;99.90
6407;DHT22;3236;51.022;6.818;2023-05-10T00:53:08;13.60;99.90
6407;DHT22;3236;51.022;6.818;2023-05-10T00:55:36;13.70;99.90
6407;DHT22;3236;51.022;6.818;2023-05-10T00:58:03;13.80;99.90
6407;DHT22;3236;51.022;6.818;2023-05-10T01:00:32;13.70;99.90
6407;DHT22;3236;51.022;6.818;2023-05-10T01:03:00;13.70;99.90
6407;DHT22;3236;51.022;6.818;2023-05-10T01:05:27;13.80;99.90
6407;DHT22;3236;51.022;6.818;2023-05-10T01:07:54;13.70;99.90
6407;DHT22;3236;51.022;6.818;2023-05-10T01:10:24;13.70;99.90
6407;DHT22;3236;51.022;6.818;2023-05-10T01:12:51;13.80;99.90
6407;DHT22;3236;51.022;6.818;2023-05-10T01:15:19;13.70;99.90
6407;DHT22;3236;51.022;6.818;2023-05-10T01:17:47;13.70;99.90
6407;DHT22;3236;51.022;6.818;2023-05-10T01:20:17;13.60;99.90
6407;DHT22;3236;51.022;6.818;2023-05-10T01:23:20;13.70;99.90
6407;DHT22;3236;51.022;6.818;2023-05-10T01:26:14;13.90;99.90
6407;DHT22;3236;51.022;6.818;2023-05-10T01:29:05;13.60;99.90
6407;DHT22;3236;51.022;6.818;2023-05-10T01:32:12;13.60;99.90
6407;DHT22;3236;51.022;6.818;2023-05-10T01:34:47;13.60;99.90
6407;DHT22;3236;51.022;6.818;2023-05-10T01:37:20;13.70;99.90
6407;DHT22;3236;51.022;6.818;2023-05-10T01:39:52;13.40;99.90
6407;DHT22;3236;51.022;6.818;2023-05-10T01:42:20;13.50;99.90
6407;DHT22;3236;51.022;6.818;2023-05-10T01:44:54;13.20;99.90
6407;DHT22;3236;51.022;6.818;2023-05-10T01:47:30;14.00;99.90
6407;DHT22;3236;51.022;6.818;2023-05-10T01:50:02;13.40;99.90
6407;DHT22;3236;51.022;6.818;2023-05-10T01:52:33;13.10;99.90
6407;DHT22;3236;51.022;6.818;2023-05-10T01:55:06;13.40;99.90
6407;DHT22;3236;51.022;6.818;2023-05-10T01:57:37;13.40;99.90
6407;DHT22;3236;51.022;6.818;2023-05-10T02:00:08;13.50;99.90
6407;DHT22;3236;51.022;6.818;2023-05-10T02:02:39;13.20;99.90
6407;DHT22;3236;51.022;6.818;2023-05-10T02:05:12;13.40;99.90
6407;DHT22;3236;51.022;6.818;2023-05-10T02:07:41;13.40;99.90
6407;DHT22;3236;51.022;6.818;2023-05-10T02:10:10;13.40;99.90
6407;DHT22;3236;51.022;6.818;2023-05-10T02:12:41;13.40;99.90
6407;DHT22;3236;51.022;6.818;2023-05-10T02:15:11;13.30;99.90
6407;DHT22;3236;51.022;6.818;2023-05-10T02:17:42;13.70;99.90
6407;DHT22;3236;51.022;6.818;2023-05-10T02:20:10;13.40;99.90
6407;DHT22;3236;51.022;6.818;2023-05-10T02:22:39;13.40;99.90
6407;DHT22;3236;51.022;6.818;2023-05-10T02:25:08;13.30;99.90
6407;DHT22;3236;51.022;6.818;2023-05-10T02:30:06;13.40;99.90
6407;DHT22;3236;51.022;6.818;2023-05-10T02:32:34;13.40;99.90
6407;DHT22;3236;51.022;6.818;2023-05-10T02:35:04;13.40;99.90
6407;DHT22;3236;51.022;6.818;2023-05-10T02:37:31;13.40;99.90
6407;DHT22;3236;51.022;6.818;2023-05-10T02:40:00;13.40;99.90
6407;DHT22;3236;51.022;6.818;2023-05-10T02:42:32;13.40;99.90
6407;DHT22;3236;51.022;6.818;2023-05-10T02:45:01;13.30;99.90
6407;DHT22;3236;51.022;6.818;2023-05-10T02:47:31;13.40;99.90
6407;DHT22;3236;51.022;6.818;2023-05-10T02:50:02;13.60;99.90
6407;DHT22;3236;51.022;6.818;2023-05-10T02:52:30;13.30;99.90
6407;DHT22;3236;51.022;6.818;2023-05-10T02:55:05;13.40;99.90
6407;DHT22;3236;51.022;6.818;2023-05-10T02:57:34;13.30;99.90
6407;DHT22;3236;51.022;6.818;2023-05-10T03:00:03;13.60;99.90
6407;DHT22;3236;51.022;6.818;2023-05-10T03:02:31;13.30;99.90
6407;DHT22;3236;51.022;6.818;2023-05-10T03:05:00;13.20;99.90
6407;DHT22;3236;51.022;6.818;2023-05-10T03:07:30;14.00;99.90
6407;DHT22;3236;51.022;6.818;2023-05-10T03:09:57;13.30;99.90
6407;DHT22;3236;51.022;6.818;2023-05-10T03:12:32;13.30;99.90
6407;DHT22;3236;51.022;6.818;2023-05-10T03:15:10;13.40;99.90
6407;DHT22;3236;51.022;6.818;2023-05-10T03:17:46;13.40;99.90
6407;DHT22;3236;51.022;6.818;2023-05-10T03:20:22;13.50;99.90
6407;DHT22;3236;51.022;6.818;2023-05-10T03:22:55;13.40;99.90
6407;DHT22;3236;51.022;6.818;2023-05-10T03:25:25;13.70;99.90
6407;DHT22;3236;51.022;6.818;2023-05-10T03:27:54;13.40;99.90
6407;DHT22;3236;51.022;6.818;2023-05-10T03:30:21;13.40;99.90
6407;DHT22;3236;51.022;6.818;2023-05-10T03:32:49;13.40;99.90
6407;DHT22;3236;51.022;6.818;2023-05-10T03:35:21;13.40;99.90
6407;DHT22;3236;51.022;6.818;2023-05-10T03:37:48;13.50;99.90
6407;DHT22;3236;51.022;6.818;2023-05-10T03:40:16;13.50;99.90
6407;DHT22;3236;51.022;6.818;2023-05-10T03:42:43;13.50;99.90
6407;DHT22;3236;51.022;6.818;2023-05-10T03:45:10;13.60;99.90
6407;DHT22;3236;51.022;6.818;2023-05-10T03:47:37;13.40;99.90
6407;DHT22;3236;51.022;6.818;2023-05-10T03:50:06;13.80;99.90
6407;DHT22;3236;51.022;6.818;2023-05-10T03:52:34;13.60;99.90
6407;DHT22;3236;51.022;6.818;2023-05-10T03:55:01;14.00;99.90
6407;DHT22;3236;51.022;6.818;2023-05-10T03:57:30;13.70;99.90
6407;DHT22;3236;51.022;6.818;2023-05-10T03:59:57;13.70;99.90
6407;DHT22;3236;51.022;6.818;2023-05-10T04:02:25;14.00;99.90
6407;DHT22;3236;51.022;6.818;2023-05-10T04:04:52;13.60;99.90
6407;DHT22;3236;51.022;6.818;2023-05-10T04:07:19;13.50;99.90
6407;DHT22;3236;51.022;6.818;2023-05-10T04:09:46;14.00;99.90
6407;DHT22;3236;51.022;6.818;2023-05-10T04:12:13;13.60;99.90
6407;DHT22;3236;51.022;6.818;2023-05-10T04:14:41;13.60;99.90
6407;DHT22;3236;51.022;6.818;2023-05-10T04:17:08;15.30;99.90
6407;DHT22;3236;51.022;6.818;2023-05-10T04:19:36;13.60;99.90
6407;DHT22;3236;51.022;6.818;2023-05-10T04:22:03;13.50;99.90
6407;DHT22;3236;51.022;6.818;2023-05-10T04:24:30;13.00;99.90
6407;DHT22;3236;51.022;6.818;2023-05-10T04:26:57;13.70;99.90
6407;DHT22;3236;51.022;6.818;2023-05-10T04:29:24;13.60;99.90
6407;DHT22;3236;51.022;6.818;2023-05-10T04:31:52;13.70;99.90
6407;DHT22;3236;51.022;6.818;2023-05-10T04:34:20;13.60;99.90
6407;DHT22;3236;51.022;6.818;2023-05-10T04:36:47;13.60;99.90
6407;DHT22;3236;51.022;6.818;2023-05-10T04:39:15;13.60;99.90
6407;DHT22;3236;51.022;6.818;2023-05-10T04:41:44;13.50;99.90
6407;DHT22;3236;51.022;6.818;2023-05-10T04:44:11;13.70;99.90
6407;DHT22;3236;51.022;6.818;2023-05-10T04:46:38;13.50;99.90
6407;DHT22;3236;51.022;6.818;2023-05-10T04:49:07;13.60;99.90
6407;DHT22;3236;51.022;6.818;2023-05-10T04:51:37;13.60;99.90
6407;DHT22;3236;51.022;6.818;2023-05-10T04:54:04;13.60;99.90
6407;DHT22;3236;51.022;6.818;2023-05-10T04:56:31;13.60;99.90
6407;DHT22;3236;51.022;6.818;2023-05-10T04:58:58;13.60;99.90
6407;DHT22;3236;51.022;6.818;2023-05-10T05:01:25;13.60;99.90
6407;DHT22;3236;51.022;6.818;2023-05-10T05:03:52;13.70;99.90
6407;DHT22;3236;51.022;6.818;2023-05-10T05:06:21;13.60;99.90
6407;DHT22;3236;51.022;6.818;2023-05-10T05:08:48;13.70;99.90
6407;DHT22;3236;51.022;6.818;2023-05-10T05:11:18;13.40;99.90
6407;DHT22;3236;51.022;6.818;2023-05-10T05:13:46;13.40;99.90
6407;DHT22;3236;51.022;6.818;2023-05-10T05:16:14;13.50;99.90
6407;DHT22;3236;51.022;6.818;2023-05-10T05:18:41;13.40;99.90
6407;DHT22;3236;51.022;6.818;2023-05-10T05:21:15;13.50;99.90
6407;DHT22;3236;51.022;6.818;2023-05-10T05:23:44;13.30;99.90
6407;DHT22;3236;51.022;6.818;2023-05-10T05:26:11;13.80;99.90
6407;DHT22;3236;51.022;6.818;2023-05-10T05:28:38;13.50;99.90
6407;DHT22;3236;51.022;6.818;2023-05-10T05:31:05;13.80;99.90
6407;DHT22;3236;51.022;6.818;2023-05-10T05:33:36;13.10;99.90
6407;DHT22;3236;51.022;6.818;2023-05-10T05:36:05;13.40;99.90
6407;DHT22;3236;51.022;6.818;2023-05-10T05:38:32;13.70;99.90
6407;DHT22;3236;51.022;6.818;2023-05-10T05:41:01;13.40;99.90
6407;DHT22;3236;51.022;6.818;2023-05-10T05:43:29;13.80;99.90
6407;DHT22;3236;51.022;6.818;2023-05-10T05:45:56;13.40;99.90
6407;DHT22;3236;51.022;6.818;2023-05-10T05:48:23;13.60;99.90
6407;DHT22;3236;51.022;6.818;2023-05-10T05:50:54;13.30;99.90
6407;DHT22;3236;51.022;6.818;2023-05-10T05:53:22;13.70;99.90
6407;DHT22;3236;51.022;6.818;2023-05-10T05:55:52;13.40;99.90
6407;DHT22;3236;51.022;6.818;2023-05-10T05:58:26;13.40;99.90
6407;DHT22;3236;51.022;6.818;2023-05-10T06:00:53;13.40;99.90
6407;DHT22;3236;51.022;6.818;2023-05-10T06:05:47;13.30;99.90
6407;DHT22;3236;51.022;6.818;2023-05-10T06:08:14;13.30;99.90
6407;DHT22;3236;51.022;6.818;2023-05-10T06:10:42;13.40;99.90
6407;DHT22;3236;51.022;6.818;2023-05-10T06:13:11;13.30;99.90
6407;DHT22;3236;51.022;6.818;2023-05-10T06:15:40;12.90;99.90
6407;DHT22;3236;51.022;6.818;2023-05-10T06:20:36;13.30;99.90
6407;DHT22;3236;51.022;6.818;2023-05-10T06:23:03;13.30;99.90
6407;DHT22;3236;51.022;6.818;2023-05-10T06:25:30;13.30;99.90
6407;DHT22;3236;51.022;6.818;2023-05-10T06:27:57;13.40;99.90
6407;DHT22;3236;51.022;6.818;2023-05-10T06:30:24;13.30;99.90
6407;DHT22;3236;51.022;6.818;2023-05-10T06:32:55;13.30;99.90
6407;DHT22;3236;51.022;6.818;2023-05-10T06:35:22;13.30;99.90
6407;DHT22;3236;51.022;6.818;2023-05-10T06:37:50;13.30;99.90
6407;DHT22;3236;51.022;6.818;2023-05-10T06:40:18;13.40;99.90
6407;DHT22;3236;51.022;6.818;2023-05-10T06:42:45;13.70;99.90
6407;DHT22;3236;51.022;6.818;2023-05-10T06:45:12;13.10;99.90
6407;DHT22;3236;51.022;6.818;2023-05-10T06:47:42;13.40;99.90
6407;DHT22;3236;51.022;6.818;2023-05-10T06:50:14;13.70;99.90
6407;DHT22;3236;51.022;6.818;2023-05-10T06:52:41;13.20;99.90
6407;DHT22;3236;51.022;6.818;2023-05-10T06:55:10;13.40;99.90
6407;DHT22;3236;51.022;6.818;2023-05-10T06:57:37;13.40;99.90
6407;DHT22;3236;51.022;6.818;2023-05-10T07:00:08;13.20;99.90
6407;DHT22;3236;51.022;6.818;2023-05-10T07:02:36;13.30;99.90
6407;DHT22;3236;51.022;6.818;2023-05-10T07:05:04;13.50;99.90
6407;DHT22;3236;51.022;6.818;2023-05-10T07:07:32;13.70;99.90
6407;DHT22;3236;51.022;6.818;2023-05-10T07:10:00;13.30;99.90
6407;DHT22;3236;51.022;6.818;2023-05-10T07:12:27;13.60;99.90
6407;DHT22;3236;51.022;6.818;2023-05-10T07:14:56;13.60;99.90
6407;DHT22;3236;51.022;6.818;2023-05-10T07:17:23;14.10;99.90
6407;DHT22;3236;51.022;6.818;2023-05-10T07:19:50;13.90;99.90
6407;DHT22;3236;51.022;6.818;2023-05-10T07:22:17;13.70;99.90
6407;DHT22;3236;51.022;6.818;2023-05-10T07:24:46;13.90;99.90
6407;DHT22;3236;51.022;6.818;2023-05-10T07:27:15;13.70;99.90
6407;DHT22;3236;51.022;6.818;2023-05-10T07:29:45;13.90;99.90
6407;DHT22;3236;51.022;6.818;2023-05-10T07:32:12;14.10;99.90
6407;DHT22;3236;51.022;6.818;2023-05-10T07:34:39;13.90;99.90
6407;DHT22;3236;51.022;6.818;2023-05-10T07:37:06;14.10;99.90
6407;DHT22;3236;51.022;6.818;2023-05-10T07:39:34;14.10;99.90
6407;DHT22;3236;51.022;6.818;2023-05-10T07:42:03;14.10;99.90
6407;DHT22;3236;51.022;6.818;2023-05-10T07:47:02;14.40;99.90
6407;DHT22;3236;51.022;6.818;2023-05-10T07:49:29;14.00;99.90
6407;DHT22;3236;51.022;6.818;2023-05-10T07:51:57;13.90;99.90
6407;DHT22;3236;51.022;6.818;2023-05-10T07:54:26;14.20;99.90
6407;DHT22;3236;51.022;6.818;2023-05-10T07:56:53;13.80;99.90
6407;DHT22;3236;51.022;6.818;2023-05-10T07:59:21;14.10;99.90
6407;DHT22;3236;51.022;6.818;2023-05-10T08:01:48;13.80;99.90
6407;DHT22;3236;51.022;6.818;2023-05-10T08:04:15;14.00;99.90
6407;DHT22;3236;51.022;6.818;2023-05-10T08:06:42;14.00;99.90
6407;DHT22;3236;51.022;6.818;2023-05-10T08:09:10;14.20;99.90
6407;DHT22;3236;51.022;6.818;2023-05-10T08:11:38;15.50;99.90
6407;DHT22;3236;51.022;6.818;2023-05-10T08:14:10;14.00;99.90
6407;DHT22;3236;51.022;6.818;2023-05-10T08:16:38;14.10;99.90
6407;DHT22;3236;51.022;6.818;2023-05-10T08:19:05;13.90;99.90
6407;DHT22;3236;51.022;6.818;2023-05-10T08:21:33;13.90;99.90
6407;DHT22;3236;51.022;6.818;2023-05-10T08:24:02;13.90;99.90
6407;DHT22;3236;51.022;6.818;2023-05-10T08:26:32;14.10;99.90
6407;DHT22;3236;51.022;6.818;2023-05-10T08:28:59;13.80;99.90
6407;DHT22;3236;51.022;6.818;2023-05-10T08:31:31;13.90;99.90
6407;DHT22;3236;51.022;6.818;2023-05-10T08:36:29;13.80;99.90
6407;DHT22;3236;51.022;6.818;2023-05-10T08:39:00;13.80;99.90
6407;DHT22;3236;51.022;6.818;2023-05-10T08:41:28;13.80;99.90
6407;DHT22;3236;51.022;6.818;2023-05-10T08:43:56;14.00;99.90
6407;DHT22;3236;51.022;6.818;2023-05-10T08:46:23;13.90;99.90
6407;DHT22;3236;51.022;6.818;2023-05-10T08:48:51;14.00;99.90
6407;DHT22;3236;51.022;6.818;2023-05-10T08:51:22;14.10;99.90
6407;DHT22;3236;51.022;6.818;2023-05-10T08:53:52;14.20;99.90
6407;DHT22;3236;51.022;6.818;2023-05-10T08:56:19;13.80;99.90
6407;DHT22;3236;51.022;6.818;2023-05-10T08:58:47;14.30;99.90
6407;DHT22;3236;51.022;6.818;2023-05-10T09:01:16;14.30;99.90
6407;DHT22;3236;51.022;6.818;2023-05-10T09:03:46;14.30;99.90
6407;DHT22;3236;51.022;6.818;2023-05-10T09:06:14;14.70;99.90
6407;DHT22;3236;51.022;6.818;2023-05-10T09:08:43;14.00;99.90
6407;DHT22;3236;51.022;6.818;2023-05-10T09:11:11;14.00;99.90
6407;DHT22;3236;51.022;6.818;2023-05-10T09:13:39;14.10;99.90
6407;DHT22;3236;51.022;6.818;2023-05-10T09:16:06;14.10;99.90
6407;DHT22;3236;51.022;6.818;2023-05-10T09:18:34;14.20;99.90
6407;DHT22;3236;51.022;6.818;2023-05-10T09:21:01;14.20;99.90
6407;DHT22;3236;51.022;6.818;2023-05-10T09:23:28;14.30;99.90
6407;DHT22;3236;51.022;6.818;2023-05-10T09:26:05;14.30;99.90
6407;DHT22;3236;51.022;6.818;2023-05-10T09:28:34;14.50;99.90
6407;DHT22;3236;51.022;6.818;2023-05-10T09:31:01;14.20;99.90
6407;DHT22;3236;51.022;6.818;2023-05-10T09:33:28;14.50;99.90
6407;DHT22;3236;51.022;6.818;2023-05-10T09:35:55;14.50;99.90
6407;DHT22;3236;51.022;6.818;2023-05-10T09:38:45;14.60;99.90
6407;DHT22;3236;51.022;6.818;2023-05-10T09:41:17;14.40;99.90
6407;DHT22;3236;51.022;6.818;2023-05-10T09:43:46;14.60;99.90
6407;DHT22;3236;51.022;6.818;2023-05-10T09:46:13;14.70;99.90
6407;DHT22;3236;51.022;6.818;2023-05-10T09:48:43;14.50;99.90
6407;DHT22;3236;51.022;6.818;2023-05-10T09:51:10;14.70;99.90
6407;DHT22;3236;51.022;6.818;2023-05-10T09:53:37;14.80;99.90
6407;DHT22;3236;51.022;6.818;2023-05-10T09:56:04;14.90;99.90
6407;DHT22;3236;51.022;6.818;2023-05-10T09:58:36;14.80;99.90
6407;DHT22;3236;51.022;6.818;2023-05-10T10:01:04;14.90;99.90
6407;DHT22;3236;51.022;6.818;2023-05-10T10:03:31;14.90;99.90
6407;DHT22;3236;51.022;6.818;2023-05-10T10:05:58;15.40;99.90
6407;DHT22;3236;51.022;6.818;2023-05-10T10:08:25;15.00;99.90
6407;DHT22;3236;51.022;6.818;2023-05-10T10:10:52;15.60;99.90
6407;DHT22;3236;51.022;6.818;2023-05-10T10:13:19;16.90;99.90
6407;DHT22;3236;51.022;6.818;2023-05-10T10:15:48;15.10;99.90
6407;DHT22;3236;51.022;6.818;2023-05-10T10:18:17;15.30;99.90
6407;DHT22;3236;51.022;6.818;2023-05-10T10:20:49;15.10;99.90
6407;DHT22;3236;51.022;6.818;2023-05-10T10:23:26;15.00;99.90
6407;DHT22;3236;51.022;6.818;2023-05-10T10:25:55;15.00;99.90
6407;DHT22;3236;51.022;6.818;2023-05-10T10:28:27;14.80;99.90
6407;DHT22;3236;51.022;6.818;2023-05-10T10:31:10;14.90;99.90
6407;DHT22;3236;51.022;6.818;2023-05-10T10:33:58;15.40;99.90
6407;DHT22;3236;51.022;6.818;2023-05-10T10:36:26;15.70;99.90
6407;DHT22;3236;51.022;6.818;2023-05-10T10:38:57;15.70;99.90
6407;DHT22;3236;51.022;6.818;2023-05-10T10:41:30;16.60;99.90
6407;DHT22;3236;51.022;6.818;2023-05-10T10:44:23;17.10;99.90
6407;DHT22;3236;51.022;6.818;2023-05-10T10:47:03;16.70;99.90
6407;DHT22;3236;51.022;6.818;2023-05-10T10:49:33;16.40;99.90
6407;DHT22;3236;51.022;6.818;2023-05-10T10:52:22;16.60;99.90
6407;DHT22;3236;51.022;6.818;2023-05-10T10:54:53;16.20;99.90
6407;DHT22;3236;51.022;6.818;2023-05-10T10:57:22;16.20;99.90
6407;DHT22;3236;51.022;6.818;2023-05-10T10:59:51;16.20;99.90
6407;DHT22;3236;51.022;6.818;2023-05-10T11:02:43;16.10;99.90
6407;DHT22;3236;51.022;6.818;2023-05-10T11:05:24;15.20;99.90
6407;DHT22;3236;51.022;6.818;2023-05-10T11:07:52;15.20;99.90
6407;DHT22;3236;51.022;6.818;2023-05-10T11:10:22;15.40;99.90
6407;DHT22;3236;51.022;6.818;2023-05-10T11:12:53;15.20;99.90
6407;DHT22;3236;51.022;6.818;2023-05-10T11:15:28;15.50;99.90
6407;DHT22;3236;51.022;6.818;2023-05-10T11:17:56;15.70;99.90
6407;DHT22;3236;51.022;6.818;2023-05-10T11:20:27;15.70;99.90
6407;DHT22;3236;51.022;6.818;2023-05-10T11:23:11;16.00;99.90
6407;DHT22;3236;51.022;6.818;2023-05-10T11:25:45;16.00;99.90
6407;DHT22;3236;51.022;6.818;2023-05-10T11:28:14;16.20;99.90
6407;DHT22;3236;51.022;6.818;2023-05-10T11:30:44;16.00;99.90
6407;DHT22;3236;51.022;6.818;2023-05-10T11:33:17;16.70;99.90
6407;DHT22;3236;51.022;6.818;2023-05-10T11:35:45;16.60;99.90
6407;DHT22;3236;51.022;6.818;2023-05-10T11:38:15;16.80;99.90
6407;DHT22;3236;51.022;6.818;2023-05-10T11:40:42;16.80;99.90
6407;DHT22;3236;51.022;6.818;2023-05-10T11:43:10;16.60;99.90
6407;DHT22;3236;51.022;6.818;2023-05-10T11:45:41;16.40;99.90
6407;DHT22;3236;51.022;6.818;2023-05-10T11:48:09;17.00;99.90
6407;DHT22;3236;51.022;6.818;2023-05-10T11:50:37;17.10;99.90
6407;DHT22;3236;51.022;6.818;2023-05-10T11:53:04;17.00;99.90
6407;DHT22;3236;51.022;6.818;2023-05-10T11:55:33;17.70;99.90
6407;DHT22;3236;51.022;6.818;2023-05-10T11:58:01;17.60;99.90
6407;DHT22;3236;51.022;6.818;2023-05-10T12:00:29;18.10;99.90
6407;DHT22;3236;51.022;6.818;2023-05-10T12:02:57;18.20;99.90
6407;DHT22;3236;51.022;6.818;2023-05-10T12:05:25;18.60;99.90
6407;DHT22;3236;51.022;6.818;2023-05-10T12:07:53;18.80;99.90
6407;DHT22;3236;51.022;6.818;2023-05-10T12:10:37;19.30;99.90
6407;DHT22;3236;51.022;6.818;2023-05-10T12:13:04;19.10;99.90
6407;DHT22;3236;51.022;6.818;2023-05-10T12:15:32;19.50;99.90
6407;DHT22;3236;51.022;6.818;2023-05-10T12:17:59;19.20;99.90
6407;DHT22;3236;51.022;6.818;2023-05-10T12:20:27;18.70;99.90
6407;DHT22;3236;51.022;6.818;2023-05-10T12:22:58;18.90;99.90
6407;DHT22;3236;51.022;6.818;2023-05-10T12:25:30;18.80;99.90
6407;DHT22;3236;51.022;6.818;2023-05-10T12:27:59;18.80;99.90
6407;DHT22;3236;51.022;6.818;2023-05-10T12:30:29;18.50;99.90
6407;DHT22;3236;51.022;6.818;2023-05-10T12:33:00;18.90;99.90
6407;DHT22;3236;51.022;6.818;2023-05-10T12:35:30;18.80;99.90
6407;DHT22;3236;51.022;6.818;2023-05-10T12:38:25;18.60;99.90
6407;DHT22;3236;51.022;6.818;2023-05-10T12:40:52;18.20;99.90
6407;DHT22;3236;51.022;6.818;2023-05-10T12:43:19;18.60;99.90
6407;DHT22;3236;51.022;6.818;2023-05-10T12:45:53;18.20;99.90
6407;DHT22;3236;51.022;6.818;2023-05-10T12:48:20;18.30;99.90
6407;DHT22;3236;51.022;6.818;2023-05-10T12:50:47;17.90;99.90
6407;DHT22;3236;51.022;6.818;2023-05-10T12:53:16;17.90;99.90
6407;DHT22;3236;51.022;6.818;2023-05-10T12:55:44;17.90;99.90
6407;DHT22;3236;51.022;6.818;2023-05-10T12:58:11;16.90;99.90
6407;DHT22;3236;51.022;6.818;2023-05-10T13:03:06;17.50;99.90
6407;DHT22;3236;51.022;6.818;2023-05-10T13:05:33;17.40;99.90
6407;DHT22;3236;51.022;6.818;2023-05-10T13:08:01;17.10;99.90
6407;DHT22;3236;51.022;6.818;2023-05-10T13:10:30;16.90;99.90
6407;DHT22;3236;51.022;6.818;2023-05-10T13:12:58;16.70;99.90
6407;DHT22;3236;51.022;6.818;2023-05-10T13:15:25;17.10;99.90
6407;DHT22;3236;51.022;6.818;2023-05-10T13:17:54;17.50;99.90
6407;DHT22;3236;51.022;6.818;2023-05-10T13:20:21;17.70;99.90
6407;DHT22;3236;51.022;6.818;2023-05-10T13:22:48;17.80;99.90
6407;DHT22;3236;51.022;6.818;2023-05-10T13:25:15;18.00;99.90
6407;DHT22;3236;51.022;6.818;2023-05-10T13:27:43;17.90;99.90
6407;DHT22;3236;51.022;6.818;2023-05-10T13:30:11;18.10;99.90
6407;DHT22;3236;51.022;6.818;2023-05-10T13:32:41;17.70;99.90
6407;DHT22;3236;51.022;6.818;2023-05-10T13:35:15;18.00;99.90
6407;DHT22;3236;51.022;6.818;2023-05-10T13:37:48;18.10;99.90
6407;DHT22;3236;51.022;6.818;2023-05-10T13:40:15;19.00;99.90
6407;DHT22;3236;51.022;6.818;2023-05-10T13:42:43;19.70;99.90
6407;DHT22;3236;51.022;6.818;2023-05-10T13:45:12;19.90;99.90
6407;DHT22;3236;51.022;6.818;2023-05-10T13:47:39;19.80;99.90
6407;DHT22;3236;51.022;6.818;2023-05-10T13:50:07;19.70;99.90
6407;DHT22;3236;51.022;6.818;2023-05-10T13:52:34;20.60;99.90
6407;DHT22;3236;51.022;6.818;2023-05-10T13:55:01;20.30;99.90
6407;DHT22;3236;51.022;6.818;2023-05-10T13:57:28;19.70;99.90
6407;DHT22;3236;51.022;6.818;2023-05-10T14:03:18;20.60;99.90
6407;DHT22;3236;51.022;6.818;2023-05-10T14:05:46;20.60;99.90
6407;DHT22;3236;51.022;6.818;2023-05-10T14:08:13;20.60;99.90
6407;DHT22;3236;51.022;6.818;2023-05-10T14:10:40;20.90;99.90
6407;DHT22;3236;51.022;6.818;2023-05-10T14:13:09;20.90;99.90
6407;DHT22;3236;51.022;6.818;2023-05-10T14:15:36;20.60;99.90
6407;DHT22;3236;51.022;6.818;2023-05-10T14:18:03;20.10;99.90
6407;DHT22;3236;51.022;6.818;2023-05-10T14:20:33;19.80;99.90
6407;DHT22;3236;51.022;6.818;2023-05-10T14:23:01;20.00;99.90
6407;DHT22;3236;51.022;6.818;2023-05-10T14:25:28;19.80;99.90
6407;DHT22;3236;51.022;6.818;2023-05-10T14:30:22;21.90;99.90
6407;DHT22;3236;51.022;6.818;2023-05-10T14:32:49;23.00;99.90
6407;DHT22;3236;51.022;6.818;2023-05-10T14:35:16;23.90;99.90
6407;DHT22;3236;51.022;6.818;2023-05-10T14:37:45;23.70;99.90
6407;DHT22;3236;51.022;6.818;2023-05-10T14:40:15;24.10;99.90
6407;DHT22;3236;51.022;6.818;2023-05-10T14:42:42;25.20;96.20
6407;DHT22;3236;51.022;6.818;2023-05-10T14:45:10;25.40;95.60
6407;DHT22;3236;51.022;6.818;2023-05-10T14:47:38;24.50;92.60
6407;DHT22;3236;51.022;6.818;2023-05-10T14:50:06;24.50;95.20
6407;DHT22;3236;51.022;6.818;2023-05-10T14:52:33;24.00;98.10
6407;DHT22;3236;51.022;6.818;2023-05-10T14:55:02;24.70;92.90
6407;DHT22;3236;51.022;6.818;2023-05-10T14:57:29;24.00;92.80
6407;DHT22;3236;51.022;6.818;2023-05-10T14:59:56;23.10;94.00
6407;DHT22;3236;51.022;6.818;2023-05-10T15:02:23;23.20;96.00
6407;DHT22;3236;51.022;6.818;2023-05-10T15:04:50;22.50;96.00
6407;DHT22;3236;51.022;6.818;2023-05-10T15:07:25;23.00;98.10
6407;DHT22;3236;51.022;6.818;2023-05-10T15:09:52;22.70;97.90
6407;DHT22;3236;51.022;6.818;2023-05-10T15:12:21;21.70;99.90
6407;DHT22;3236;51.022;6.818;2023-05-10T15:14:48;22.30;99.90
6407;DHT22;3236;51.022;6.818;2023-05-10T15:17:15;23.10;99.00
6407;DHT22;3236;51.022;6.818;2023-05-10T15:19:43;21.00;99.90
6407;DHT22;3236;51.022;6.818;2023-05-10T15:22:10;20.70;99.90
6407;DHT22;3236;51.022;6.818;2023-05-10T15:24:37;20.60;99.90
6407;DHT22;3236;51.022;6.818;2023-05-10T15:27:04;20.40;99.90
6407;DHT22;3236;51.022;6.818;2023-05-10T15:29:32;20.20;99.90
6407;DHT22;3236;51.022;6.818;2023-05-10T15:32:01;20.70;99.90
6407;DHT22;3236;51.022;6.818;2023-05-10T15:34:35;20.50;99.90
6407;DHT22;3236;51.022;6.818;2023-05-10T15:37:02;19.90;99.90
6407;DHT22;3236;51.022;6.818;2023-05-10T15:39:29;19.80;99.90
6407;DHT22;3236;51.022;6.818;2023-05-10T15:41:56;19.50;99.90
6407;DHT22;3236;51.022;6.818;2023-05-10T15:44:23;18.70;99.90
6407;DHT22;3236;51.022;6.818;2023-05-10T15:46:52;18.30;99.90
6407;DHT22;3236;51.022;6.818;2023-05-10T15:49:19;18.00;99.90
6407;DHT22;3236;51.022;6.818;2023-05-10T15:51:46;18.50;99.90
6407;DHT22;3236;51.022;6.818;2023-05-10T15:54:13;18.80;99.90
6407;DHT22;3236;51.022;6.818;2023-05-10T15:56:40;18.70;99.90
6407;DHT22;3236;51.022;6.818;2023-05-10T15:59:07;19.10;99.90
6407;DHT22;3236;51.022;6.818;2023-05-10T16:01:35;20.10;99.90
6407;DHT22;3236;51.022;6.818;2023-05-10T16:04:04;20.00;99.90
6407;DHT22;3236;51.022;6.818;2023-05-10T16:06:31;20.00;99.90
6407;DHT22;3236;51.022;6.818;2023-05-10T16:08:58;19.60;99.90
6407;DHT22;3236;51.022;6.818;2023-05-10T16:11:26;19.30;99.90
6407;DHT22;3236;51.022;6.818;2023-05-10T16:13:53;18.90;99.90
6407;DHT22;3236;51.022;6.818;2023-05-10T16:16:20;18.60;99.90
6407;DHT22;3236;51.022;6.818;2023-05-10T16:18:47;18.40;99.90
6407;DHT22;3236;51.022;6.818;2023-05-10T16:21:15;18.20;99.90
6407;DHT22;3236;51.022;6.818;2023-05-10T16:23:42;18.10;99.90
6407;DHT22;3236;51.022;6.818;2023-05-10T16:26:11;18.20;99.90
6407;DHT22;3236;51.022;6.818;2023-05-10T16:28:38;18.70;99.90
6407;DHT22;3236;51.022;6.818;2023-05-10T16:31:05;19.20;99.90
6407;DHT22;3236;51.022;6.818;2023-05-10T16:33:33;19.50;99.90
6407;DHT22;3236;51.022;6.818;2023-05-10T16:35:59;19.20;99.90